Time;durP1;ratioP1;P1;durP2;ratioP2;P2;SDS_P1;SDS_P2;PMS_P1;PMS_P2;Temp;Humidity;BMP_temperature;BMP_pressure;BME280_temperature;BME280_humidity;BME280_pressure;Samples;Min_cycle;Max_cycle;Signal;HPM_P1;HPM_P2
2022/10/04 00:01:50;;;;;;;28.15;22.55;;;21.80;57.50;;;;;;4441368;59;21048;-26
2022/10/04 00:07:27;;;;;;;28.35;22.02;;;21.80;57.60;;;;;;4439795;59;21603;-33
2022/10/04 00:12:39;;;;;;;26.87;21.52;;;21.80;57.50;;;;;;4440122;63;21064;-30
2022/10/04 00:17:40;;;;;;;26.77;21.35;;;21.80;57.60;;;;;;4441556;59;21052;-29
2022/10/04 00:23:27;;;;;;;25.98;21.77;;;21.80;57.60;;;;;;4469977;58;21549;-28
2022/10/04 00:29:34;;;;;;;25.83;21.27;;;21.80;57.50;;;;;;4453591;59;21534;-28
2022/10/04 00:34:50;;;;;;;27.62;21.42;;;21.80;57.50;;;;;;4439651;63;21052;-29
2022/10/04 00:40:01;;;;;;;26.02;21.17;;;21.80;57.50;;;;;;4470608;59;21068;-31
2022/10/04 00:45:31;;;;;;;27.83;20.95;;;21.80;57.50;;;;;;4456500;59;22065;-32
2022/10/04 00:50:43;;;;;;;24.87;19.98;;;21.80;57.50;;;;;;4456546;59;21097;-27
2022/10/04 00:55:54;;;;;;;26.08;20.37;;;21.80;57.50;;;;;;4444699;59;21056;-29
2022/10/04 01:00:56;;;;;;;25.75;20.55;;;21.80;57.50;;;;;;4440374;63;21093;-33
2022/10/04 01:06:04;;;;;;;24.08;19.70;;;21.80;57.50;;;;;;4472997;59;21052;-30
2022/10/04 01:11:25;;;;;;;23.50;18.55;;;21.80;57.50;;;;;;4464547;59;21100;-35
2022/10/04 01:16:28;;;;;;;25.92;20.20;;;21.80;57.50;;;;;;4440196;63;21060;-26
2022/10/04 01:21:30;;;;;;;25.40;19.58;;;21.80;57.50;;;;;;4451505;59;21063;-33
2022/10/04 01:26:38;;;;;;;26.27;19.83;;;21.80;57.50;;;;;;4476930;59;21056;-31
2022/10/04 01:31:48;;;;;;;23.50;19.15;;;21.80;57.50;;;;;;4476865;59;21091;-31
2022/10/04 01:36:54;;;;;;;24.15;19.62;;;21.70;57.30;;;;;;4440520;59;21084;-32
2022/10/04 01:42:59;;;;;;;23.40;18.70;;;21.70;57.40;;;;;;4509685;59;21610;-34
2022/10/04 01:48:01;;;;;;;24.02;18.30;;;21.80;57.40;;;;;;4439881;59;21574;-28
2022/10/04 01:55:41;;;;;;;25.15;19.33;;;21.70;57.40;;;;;;4451317;59;21072;-26
2022/10/04 02:01:10;;;;;;;21.08;18.00;;;21.70;57.40;;;;;;4441690;59;21557;-34
2022/10/04 02:06:13;;;;;;;24.30;18.52;;;21.70;57.40;;;;;;4447631;59;21012;-35
2022/10/04 02:11:20;;;;;;;21.02;18.02;;;21.70;57.40;;;;;;4489229;59;21036;-34
2022/10/04 02:16:23;;;;;;;22.80;18.25;;;21.70;57.30;;;;;;4445806;59;21072;-32
2022/10/04 02:21:24;;;;;;;23.45;18.05;;;21.70;57.30;;;;;;4456025;59;22045;-33
2022/10/04 02:26:26;;;;;;;23.45;17.67;;;21.70;57.30;;;;;;4454773;59;21052;-34
2022/10/04 02:36:51;;;;;;;22.05;17.40;;;21.70;57.90;;;;;;4450854;59;21073;-31
2022/10/04 02:42:01;;;;;;;22.35;17.90;;;21.70;57.30;;;;;;4444801;59;21565;-30
2022/10/04 02:47:24;;;;;;;21.73;17.27;;;21.70;57.30;;;;;;4456058;59;22296;-32
2022/10/04 02:52:33;;;;;;;21.02;17.12;;;21.70;57.30;;;;;;4447155;59;21049;-29
2022/10/04 02:57:35;;;;;;;20.55;16.45;;;21.70;57.30;;;;;;4465043;59;21052;-29
2022/10/04 03:02:36;;;;;;;19.37;16.17;;;21.70;57.30;;;;;;4480344;59;21060;-27
2022/10/04 03:07:38;;;;;;;22.08;16.50;;;21.70;57.20;;;;;;4450096;58;21037;-29
2022/10/04 03:12:40;;;;;;;22.67;16.90;;;21.70;57.30;;;;;;4454665;59;21091;-29
2022/10/04 03:17:42;;;;;;;20.00;15.88;;;21.70;57.30;;;;;;4445682;59;21120;-36
2022/10/04 03:22:44;;;;;;;21.12;16.05;;;21.70;57.30;;;;;;4481713;59;21086;-32
2022/10/04 03:27:49;;;;;;;20.58;16.42;;;21.70;57.30;;;;;;4450389;59;21108;-28
2022/10/04 03:32:50;;;;;;;20.40;15.80;;;21.70;57.30;;;;;;4445866;59;21401;-34
2022/10/04 03:37:52;;;;;;;18.58;15.20;;;21.70;57.20;;;;;;4469959;59;21040;-34
2022/10/04 03:42:53;;;;;;;19.92;16.23;;;21.70;57.20;;;;;;4461477;59;21200;-35
2022/10/04 03:47:59;;;;;;;18.80;15.15;;;21.70;57.10;;;;;;4444507;58;21529;-30
2022/10/04 03:53:07;;;;;;;18.35;15.00;;;21.70;57.10;;;;;;4525399;59;21189;-27
2022/10/04 03:58:12;;;;;;;18.90;14.87;;;21.70;57.00;;;;;;4467451;59;21056;-26
2022/10/04 04:03:18;;;;;;;17.73;14.10;;;21.70;56.90;;;;;;4466507;59;21133;-29
2022/10/04 04:08:36;;;;;;;20.00;14.60;;;21.70;56.80;;;;;;4444175;59;21575;-26
2022/10/04 04:14:09;;;;;;;18.67;13.82;;;21.70;56.80;;;;;;4474572;59;21044;-27
2022/10/04 04:19:15;;;;;;;17.17;14.00;;;21.70;56.90;;;;;;4443364;59;22301;-30
2022/10/04 04:24:26;;;;;;;19.58;14.38;;;21.70;56.80;;;;;;4455551;59;21538;-26
2022/10/04 04:29:47;;;;;;;16.48;13.62;;;21.70;56.80;;;;;;4452536;59;21017;-28
2022/10/04 04:35:05;;;;;;;17.58;14.02;;;21.70;56.80;;;;;;4473686;59;21174;-31
2022/10/04 04:40:23;;;;;;;19.37;14.45;;;21.70;56.80;;;;;;4461501;59;21521;-32
2022/10/04 04:45:28;;;;;;;18.10;13.43;;;21.60;56.60;;;;;;4448279;59;21068;-33
2022/10/04 04:50:36;;;;;;;17.23;13.73;;;21.60;56.60;;;;;;4523085;59;21535;-33
2022/10/04 04:55:46;;;;;;;17.80;14.50;;;21.60;56.60;;;;;;4439359;59;21056;-29
2022/10/04 05:00:59;;;;;;;17.62;13.80;;;21.60;56.60;;;;;;4480419;59;21610;-31
2022/10/04 05:06:03;;;;;;;15.98;13.15;;;21.60;56.60;;;;;;4510151;59;21109;-32
2022/10/04 05:11:25;;;;;;;17.23;13.27;;;21.60;56.60;;;;;;4443888;59;21510;-31
2022/10/04 05:17:25;;;;;;;16.62;13.57;;;21.60;56.60;;;;;;4439135;63;21113;-34
2022/10/04 05:22:27;;;;;;;17.20;13.13;;;21.60;56.60;;;;;;4440472;63;21153;-34
2022/10/04 05:27:34;;;;;;;18.55;14.20;;;21.60;56.60;;;;;;4461778;59;21505;-27
2022/10/04 05:33:03;;;;;;;16.70;13.32;;;21.60;56.60;;;;;;4459965;59;21046;-27
2022/10/04 05:39:47;;;;;;;15.38;13.10;;;21.60;56.60;;;;;;4446486;59;21156;-28
2022/10/04 05:44:53;;;;;;;17.58;14.05;;;21.60;56.60;;;;;;4439464;63;22140;-28
2022/10/04 05:49:56;;;;;;;17.05;13.45;;;21.60;56.60;;;;;;4450324;59;21101;-34
2022/10/04 05:55:40;;;;;;;17.35;12.93;;;21.60;57.20;;;;;;4439013;63;21592;-32
2022/10/04 06:01:59;;;;;;;16.12;13.62;;;21.60;56.60;;;;;;4451136;59;21510;-29
2022/10/04 06:08:44;;;;;;;17.23;13.62;;;21.60;56.60;;;;;;4453635;59;21044;-30
2022/10/04 06:19:53;;;;;;;18.80;14.87;;;21.60;56.50;;;;;;4440793;59;21084;-33
2022/10/04 06:25:10;;;;;;;17.42;13.82;;;21.60;56.50;;;;;;4484314;59;21048;-34
2022/10/04 06:30:19;;;;;;;18.05;14.68;;;21.60;56.50;;;;;;4447730;59;21105;-30
2022/10/04 06:36:02;;;;;;;18.67;15.07;;;21.60;56.50;;;;;;4451159;59;21573;-27
2022/10/04 06:44:55;;;;;;;19.23;15.23;;;21.60;56.50;;;;;;4442625;59;21103;-32
2022/10/04 06:58:08;;;;;;;21.77;15.88;;;21.60;56.50;;;;;;4467731;59;21076;-27
2022/10/04 07:03:18;;;;;;;65.12;45.92;;;21.60;50.70;;;;;;4461782;59;21546;-33
2022/10/04 07:09:22;;;;;;;64.85;44.95;;;21.50;49.50;;;;;;4448538;59;21044;-30
2022/10/04 07:14:37;;;;;;;64.07;46.20;;;21.50;49.80;;;;;;4449738;59;21120;-32
2022/10/04 07:19:45;;;;;;;71.28;49.20;;;21.50;49.70;;;;;;4489156;59;21558;-32
2022/10/04 07:25:18;;;;;;;63.53;48.42;;;21.50;49.50;;;;;;4440338;59;21044;-30
2022/10/04 07:30:19;;;;;;;69.97;52.30;;;21.50;49.50;;;;;;4444697;59;21024;-32
2022/10/04 07:35:42;;;;;;;75.97;52.05;;;21.50;49.20;;;;;;4456781;58;21534;-29
2022/10/04 07:41:12;;;;;;;74.22;51.58;;;21.50;49.40;;;;;;4486787;59;21028;-28
2022/10/04 07:46:52;;;;;;;82.65;52.80;;;21.50;49.40;;;;;;4471220;59;21054;-32
2022/10/04 07:53:14;;;;;;;73.85;50.08;;;21.50;49.50;;;;;;4473136;59;21091;-30
2022/10/04 07:58:51;;;;;;;109.82;69.28;;;21.50;51.00;;;;;;4450168;59;21510;-32
2022/10/04 08:04:27;;;;;;;87.68;56.30;;;21.50;49.50;;;;;;4445053;59;21084;-33
2022/10/04 08:11:11;;;;;;;86.13;56.40;;;21.50;49.60;;;;;;4457359;59;21017;-30
2022/10/04 08:25:38;;;;;;;90.93;58.80;;;21.50;49.60;;;;;;4439026;63;21617;-28
2022/10/04 08:31:08;;;;;;;82.50;56.45;;;21.40;49.80;;;;;;4440346;59;21117;-30
2022/10/04 08:36:58;;;;;;;79.10;54.50;;;21.50;50.80;;;;;;4494113;59;22159;-32
2022/10/04 08:43:48;;;;;;;74.87;53.35;;;21.60;51.10;;;;;;4475228;59;21569;-31
2022/10/04 08:50:48;;;;;;;74.68;53.42;;;21.60;51.10;;;;;;4446722;59;21172;-29
2022/10/04 08:56:17;;;;;;;75.55;51.60;;;21.60;51.10;;;;;;4443441;59;21048;-30
2022/10/04 09:02:06;;;;;;;75.37;54.83;;;21.70;51.30;;;;;;4448874;59;21085;-27
2022/10/04 09:07:45;;;;;;;79.68;52.30;;;21.70;51.40;;;;;;4440425;59;21084;-29
2022/10/04 09:13:36;;;;;;;70.68;51.25;;;21.80;51.80;;;;;;4442144;59;21665;-29
2022/10/04 09:19:00;;;;;;;73.32;52.67;;;21.90;52.00;;;;;;4445435;59;21040;-27
2022/10/04 09:25:41;;;;;;;77.28;53.90;;;21.90;52.70;;;;;;4471698;59;21032;-26
2022/10/04 09:32:47;;;;;;;79.57;54.50;;;21.90;52.90;;;;;;4456477;59;21052;-33
2022/10/04 09:39:47;;;;;;;76.80;55.20;;;22.00;53.10;;;;;;4450297;59;21549;-28
2022/10/04 09:48:23;;;;;;;76.75;56.70;;;22.00;53.40;;;;;;4439734;59;21144;-29
2022/10/04 09:53:45;;;;;;;79.40;58.42;;;22.10;53.60;;;;;;4459022;59;21577;-29
2022/10/04 09:59:28;;;;;;;75.30;57.03;;;22.10;53.40;;;;;;4455842;59;21598;-28
2022/10/04 10:08:27;;;;;;;81.20;58.87;;;22.10;54.10;;;;;;4440940;60;21554;-27
2022/10/04 10:13:53;;;;;;;85.20;58.53;;;22.10;54.00;;;;;;4457628;59;21312;-28
2022/10/04 10:23:03;;;;;;;85.15;58.25;;;22.10;53.90;;;;;;4441136;59;21156;-31
2022/10/04 10:29:44;;;;;;;74.43;54.95;;;22.20;54.10;;;;;;4465227;59;21129;-29
2022/10/04 10:35:18;;;;;;;73.37;54.85;;;22.20;54.40;;;;;;4470043;59;21108;-29
2022/10/04 10:40:57;;;;;;;81.22;58.28;;;22.20;54.30;;;;;;4479564;59;21625;-28
2022/10/04 10:46:09;;;;;;;70.28;54.97;;;22.20;54.20;;;;;;4451761;59;21498;-29
2022/10/04 10:52:53;;;;;;;73.87;54.53;;;22.20;54.20;;;;;;4480189;59;21521;-29
2022/10/04 11:00:49;;;;;;;69.53;53.17;;;22.20;54.10;;;;;;4454592;59;21486;-30
2022/10/04 11:06:06;;;;;;;;;;;22.30;54.00;;;;;;4470377;59;21601;-27
2022/10/04 11:12:00;;;;;;;72.12;53.40;;;22.30;53.80;;;;;;4449363;58;20130;-32
2022/10/04 11:23:41;;;;;;;75.30;54.38;;;22.30;53.70;;;;;;4465421;59;21047;-35
2022/10/04 11:28:56;;;;;;;73.97;55.78;;;22.30;53.90;;;;;;4441693;59;22088;-31
2022/10/04 11:34:29;;;;;;;74.35;54.53;;;22.40;54.40;;;;;;4441012;59;21549;-30
2022/10/04 11:41:42;;;;;;;68.45;51.72;;;22.30;54.30;;;;;;4457769;59;21606;-27
2022/10/04 11:48:06;;;;;;;68.28;52.60;;;22.30;54.20;;;;;;4566401;59;21073;-28
2022/10/04 11:56:02;;;;;;;68.28;52.45;;;22.30;54.20;;;;;;4439474;59;21566;-31
2022/10/04 12:02:16;;;;;;;70.20;54.47;;;22.30;54.20;;;;;;4492516;59;21612;-30
2022/10/04 12:09:04;;;;;;;71.85;52.90;;;22.30;54.30;;;;;;4471901;59;21144;-30
2022/10/04 12:15:49;;;;;;;67.90;50.88;;;22.30;54.50;;;;;;4439814;59;21088;-27
2022/10/04 12:24:08;;;;;;;67.87;51.88;;;22.30;54.70;;;;;;4470661;59;21084;-29
2022/10/04 12:30:55;;;;;;;70.57;52.25;;;22.40;54.80;;;;;;4445047;59;21056;-28
2022/10/04 12:36:30;;;;;;;69.93;52.50;;;22.40;55.00;;;;;;4443778;59;21060;-31
2022/10/04 12:48:28;;;;;;;69.40;54.10;;;22.40;55.00;;;;;;4439326;63;21080;-33
2022/10/04 12:54:30;;;;;;;73.35;54.20;;;22.50;55.20;;;;;;4473532;59;22221;-33
2022/10/04 12:59:48;;;;;;;71.25;53.50;;;22.50;55.10;;;;;;4439997;63;21194;-29
2022/10/04 13:05:16;;;;;;;79.90;54.33;;;22.50;55.20;;;;;;4461063;59;21037;-31
2022/10/04 13:11:45;;;;;;;68.32;52.00;;;22.50;55.20;;;;;;4488106;59;21471;-28
2022/10/04 13:17:14;;;;;;;72.60;52.10;;;22.50;55.10;;;;;;4463434;59;21143;-31
2022/10/04 13:23:15;;;;;;;70.43;52.58;;;22.50;55.10;;;;;;4444239;59;21106;-29
2022/10/04 13:36:27;;;;;;;66.93;50.40;;;22.50;55.10;;;;;;4758246;54;22134;-26
2022/10/04 13:43:28;;;;;;;68.05;47.00;;;22.60;55.10;;;;;;4760201;54;21604;-34
2022/10/04 13:48:53;;;;;;;70.87;49.85;;;22.60;54.60;;;;;;4839767;54;21095;-32
2022/10/04 14:00:59;;;;;;;67.53;47.03;;;22.60;54.60;;;;;;4802249;54;21031;-32
2022/10/04 14:06:42;;;;;;;62.22;46.20;;;22.60;54.70;;;;;;4812955;54;21163;-30
2022/10/04 14:12:00;;;;;;;61.80;46.15;;;22.60;54.70;;;;;;4822801;54;21098;-29
2022/10/04 14:20:04;;;;;;;59.25;45.30;;;22.60;54.80;;;;;;4799571;54;21044;-29
2022/10/04 14:28:12;;;;;;;57.13;44.40;;;22.60;54.90;;;;;;4799074;54;20984;-32
2022/10/04 14:33:53;;;;;;;56.97;43.30;;;22.50;55.10;;;;;;4813072;54;21556;-31
2022/10/04 14:40:43;;;;;;;56.45;43.83;;;22.50;55.50;;;;;;4813458;54;22149;-32
2022/10/04 14:48:43;;;;;;;56.65;42.42;;;22.40;55.70;;;;;;4798881;54;21096;-28
2022/10/04 14:54:09;;;;;;;54.90;43.03;;;22.40;55.90;;;;;;4812984;54;21105;-32
2022/10/04 15:00:14;;;;;;;52.58;40.92;;;22.30;55.90;;;;;;4816037;54;21007;-31
2022/10/04 15:08:33;;;;;;;56.85;40.92;;;22.30;56.00;;;;;;4809927;54;21059;-31
2022/10/04 15:13:54;;;;;;;51.60;40.25;;;22.20;56.10;;;;;;4802434;54;21086;-28
2022/10/04 15:22:12;;;;;;;52.30;38.63;;;22.20;56.20;;;;;;4795467;58;21525;-26
2022/10/04 15:27:49;;;;;;;52.13;40.35;;;22.20;56.30;;;;;;4795252;58;21007;-30
2022/10/04 15:34:17;;;;;;;53.95;39.92;;;22.10;56.20;;;;;;4854174;54;21529;-31
2022/10/04 15:40:58;;;;;;;51.47;40.88;;;22.10;56.20;;;;;;4803982;54;21544;-31
2022/10/04 15:47:14;;;;;;;49.85;39.22;;;22.10;56.30;;;;;;4841504;54;21051;-31
2022/10/04 15:55:11;;;;;;;52.30;39.10;;;22.10;56.40;;;;;;4795539;58;20979;-27
2022/10/04 16:00:25;;;;;;;49.45;38.38;;;22.10;56.40;;;;;;4846496;54;21011;-30
2022/10/04 16:09:17;;;;;;;49.45;39.05;;;22.10;56.40;;;;;;4797345;54;21063;-35
2022/10/04 16:20:48;;;;;;;51.72;40.47;;;22.10;56.50;;;;;;4877847;54;20991;-33
2022/10/04 16:25:54;;;;;;;48.25;37.45;;;22.00;56.50;;;;;;4796533;54;21583;-30
2022/10/04 16:31:26;;;;;;;50.58;38.92;;;22.00;56.50;;;;;;4867842;54;21826;-30
2022/10/04 16:36:49;;;;;;;47.72;38.38;;;22.00;56.50;;;;;;4796229;58;21134;-30
2022/10/04 16:42:03;;;;;;;49.85;37.63;;;22.00;56.60;;;;;;4819192;54;21068;-28
2022/10/04 16:47:26;;;;;;;52.85;40.17;;;22.00;56.60;;;;;;4817709;54;21048;-30
2022/10/04 16:52:57;;;;;;;47.83;37.45;;;22.00;56.60;;;;;;4803125;54;21016;-27
2022/10/04 17:04:54;;;;;;;50.45;38.05;;;22.00;56.70;;;;;;4795198;54;21541;-31
2022/10/04 17:11:08;;;;;;;49.13;39.15;;;22.00;56.70;;;;;;4821527;54;21059;-32
2022/10/04 17:16:18;;;;;;;46.20;35.97;;;22.00;56.80;;;;;;4843069;54;21012;-32
2022/10/04 17:21:44;;;;;;;48.85;37.35;;;21.90;56.70;;;;;;4795748;55;21044;-28
2022/10/04 17:27:52;;;;;;;48.53;37.07;;;22.00;56.80;;;;;;4796856;54;21492;-28
2022/10/04 17:33:18;;;;;;;46.75;36.47;;;21.90;56.90;;;;;;4796330;54;21035;-35
2022/10/04 17:42:02;;;;;;;44.77;36.00;;;21.90;56.90;;;;;;4795769;58;20980;-29
2022/10/04 17:58:55;;;;;;;45.17;36.22;;;21.90;57.00;;;;;;4795390;54;21079;-34
2022/10/04 18:04:31;;;;;;;45.00;35.50;;;21.90;57.00;;;;;;4794726;58;21011;-28
2022/10/04 18:09:42;;;;;;;49.42;37.35;;;21.90;57.10;;;;;;4803017;54;21589;-29
2022/10/04 18:14:58;;;;;;;46.08;35.90;;;21.90;57.10;;;;;;4812613;54;21007;-27
2022/10/04 18:26:56;;;;;;;42.50;34.28;;;21.90;57.20;;;;;;4796417;54;21024;-34
2022/10/04 18:32:00;;;;;;;45.90;34.92;;;21.90;57.20;;;;;;4795409;58;22256;-31
2022/10/04 18:37:28;;;;;;;45.08;35.15;;;21.90;57.20;;;;;;4796523;54;21488;-35
2022/10/04 18:42:35;;;;;;;45.92;35.95;;;21.90;57.30;;;;;;4828786;54;21107;-31
2022/10/04 18:47:37;;;;;;;;;;;21.90;57.30;;;;;;4799044;58;21520;-35
2022/10/04 18:53:18;;;;;;;44.13;36.35;;;21.80;57.30;;;;;;4823770;54;20067;-35
2022/10/04 19:05:20;;;;;;;43.13;34.00;;;21.90;57.50;;;;;;4795770;54;21505;-30
2022/10/04 19:11:20;;;;;;;45.03;35.83;;;21.90;57.50;;;;;;4796588;54;21520;-29
2022/10/04 19:18:00;;;;;;;47.03;36.15;;;21.90;57.50;;;;;;4816507;54;21015;-34
2022/10/04 19:26:40;;;;;;;44.15;35.60;;;21.80;57.50;;;;;;4799449;54;21003;-33
2022/10/04 19:32:07;;;;;;;45.60;35.72;;;21.90;57.60;;;;;;4802681;54;21067;-26
2022/10/04 19:37:31;;;;;;;43.87;35.42;;;21.80;57.60;;;;;;4814162;54;21016;-31
2022/10/04 19:42:45;;;;;;;47.72;36.05;;;21.80;57.70;;;;;;4795021;58;21135;-34
2022/10/04 19:47:56;;;;;;;46.40;35.65;;;21.80;57.70;;;;;;4795337;58;21076;-31
2022/10/04 19:53:22;;;;;;;45.97;36.67;;;21.80;57.70;;;;;;4796595;55;21521;-30
2022/10/04 19:59:17;;;;;;;46.05;35.08;;;21.80;57.70;;;;;;4795253;58;21063;-31
2022/10/04 20:04:42;;;;;;;43.70;35.42;;;21.80;57.80;;;;;;4826892;54;21575;-36
2022/10/04 20:10:12;;;;;;;46.08;34.92;;;21.80;57.80;;;;;;4802981;54;21509;-27
2022/10/04 20:15:59;;;;;;;44.10;35.28;;;21.80;57.80;;;;;;4847195;54;21040;-33
2022/10/04 20:21:07;;;;;;;43.70;34.22;;;21.80;57.80;;;;;;4795954;58;21553;-29
2022/10/04 20:26:55;;;;;;;44.95;34.55;;;21.80;57.80;;;;;;4795709;58;21020;-32
2022/10/04 20:31:55;;;;;;;43.72;35.17;;;21.80;57.90;;;;;;4835258;54;22005;-34
2022/10/04 20:36:58;;;;;;;44.75;34.83;;;21.80;57.90;;;;;;4813434;54;21004;-35
2022/10/04 20:42:19;;;;;;;40.78;33.33;;;21.80;57.90;;;;;;4799885;54;21521;-36
2022/10/04 20:47:56;;;;;;;42.60;34.58;;;21.80;57.90;;;;;;4802399;54;21098;-28
2022/10/04 20:53:04;;;;;;;41.78;33.58;;;21.70;57.80;;;;;;4798042;54;21072;-36
2022/10/04 20:58:31;;;;;;;42.97;33.88;;;21.80;57.90;;;;;;4795396;58;21473;-36
2022/10/04 21:03:32;;;;;;;41.00;33.57;;;21.80;57.90;;;;;;4813891;54;21524;-33
2022/10/04 21:08:34;;;;;;;43.72;33.95;;;21.80;57.90;;;;;;4859664;54;21369;-36
2022/10/04 21:14:07;;;;;;;41.97;34.05;;;21.70;57.90;;;;;;4822983;54;21003;-31
2022/10/04 21:19:44;;;;;;;41.70;33.08;;;21.80;57.90;;;;;;4808247;54;21047;-28
2022/10/04 21:25:06;;;;;;;41.22;32.05;;;21.80;57.90;;;;;;4801415;54;21521;-25
2022/10/04 21:30:13;;;;;;;40.12;31.35;;;21.80;58.00;;;;;;4794583;58;21039;-30
2022/10/04 21:35:14;;;;;;;40.10;31.45;;;21.80;58.00;;;;;;4838904;54;21108;-32
2022/10/04 21:40:15;;;;;;;39.67;31.65;;;21.70;57.90;;;;;;4794893;58;21067;-26
2022/10/04 21:45:15;;;;;;;41.42;31.65;;;21.80;58.00;;;;;;4795234;58;21485;-30
2022/10/04 21:50:16;;;;;;;38.05;31.05;;;21.80;57.90;;;;;;4806366;54;21588;-35
2022/10/04 21:55:17;;;;;;;38.42;31.80;;;21.80;57.90;;;;;;4871306;54;21506;-31
2022/10/04 22:00:18;;;;;;;37.08;30.05;;;21.70;57.90;;;;;;4795142;55;21091;-35
2022/10/04 22:05:19;;;;;;;39.22;31.00;;;21.70;57.90;;;;;;4812728;54;22256;-33
2022/10/04 22:10:20;;;;;;;39.15;30.10;;;21.70;58.00;;;;;;4795287;58;21052;-32
2022/10/04 22:15:22;;;;;;;38.70;30.92;;;21.70;58.00;;;;;;4802695;54;21015;-26
2022/10/04 22:20:24;;;;;;;37.38;29.60;;;21.70;58.00;;;;;;4811782;54;21534;-33
2022/10/04 22:25:26;;;;;;;39.13;29.73;;;21.70;58.00;;;;;;4795429;58;21063;-35
2022/10/04 22:30:30;;;;;;;38.65;29.77;;;21.70;58.00;;;;;;4807125;54;21485;-34
2022/10/04 22:35:32;;;;;;;35.67;28.62;;;21.70;58.00;;;;;;4795745;58;21930;-30
2022/10/04 22:40:33;;;;;;;34.50;27.75;;;21.70;58.00;;;;;;4796359;54;21087;-31
2022/10/04 22:45:35;;;;;;;34.65;28.60;;;21.70;58.00;;;;;;4797805;54;21031;-34
2022/10/04 22:50:36;;;;;;;35.85;27.90;;;21.70;58.00;;;;;;4811433;54;21092;-34
2022/10/04 22:55:39;;;;;;;35.58;28.02;;;21.70;58.00;;;;;;4795537;58;21083;-26
2022/10/04 23:00:42;;;;;;;37.05;28.52;;;21.70;58.00;;;;;;4823712;54;21544;-35
2022/10/04 23:05:46;;;;;;;33.42;26.80;;;21.70;58.10;;;;;;4824549;54;21079;-32
2022/10/04 23:10:47;;;;;;;35.25;28.15;;;21.70;58.00;;;;;;4856549;54;21521;-27
2022/10/04 23:15:48;;;;;;;34.88;27.50;;;21.70;58.00;;;;;;4795640;58;20996;-28
2022/10/04 23:20:56;;;;;;;34.72;27.02;;;21.70;58.00;;;;;;4795884;58;21008;-34
2022/10/04 23:25:57;;;;;;;35.70;27.98;;;21.70;58.00;;;;;;4809994;54;21576;-29
2022/10/04 23:31:04;;;;;;;35.83;27.40;;;21.70;58.10;;;;;;4824641;54;21126;-33
2022/10/04 23:36:10;;;;;;;33.55;25.73;;;21.70;58.00;;;;;;4796354;54;21011;-30
2022/10/04 23:41:11;;;;;;;33.60;26.65;;;21.70;58.00;;;;;;4821034;54;21039;-36
2022/10/04 23:46:20;;;;;;;33.15;25.83;;;21.70;58.00;;;;;;4814363;54;21238;-34
2022/10/04 23:51:21;;;;;;;31.23;24.48;;;21.70;58.00;;;;;;4794832;55;21083;-28
2022/10/04 23:56:28;;;;;;;31.02;24.92;;;21.70;58.00;;;;;;4795596;58;20992;-35
